createdAt,value
2023-04-29T00:00:33.174Z,803.10
2023-04-29T00:01:33.181Z,795.60
2023-04-29T00:02:33.288Z,834.30
2023-04-29T00:03:33.385Z,823.90
2023-04-29T00:04:33.261Z,799.90
2023-04-29T00:05:33.160Z,778.80
2023-04-29T00:06:33.124Z,785.60
2023-04-29T00:07:33.151Z,816.20
2023-04-29T00:08:33.079Z,807.20
2023-04-29T00:09:33.057Z,790.60
2023-04-29T00:10:33.060Z,797.90
2023-04-29T00:11:33.037Z,821.80
2023-04-29T00:12:33.063Z,797.50
2023-04-29T00:13:33.009Z,784.40
2023-04-29T00:14:33.017Z,795.40
2023-04-29T00:15:32.988Z,791.80
2023-04-29T00:16:33.010Z,787.20
2023-04-29T00:17:33.029Z,822.50
2023-04-29T00:18:32.938Z,785.40
2023-04-29T00:19:32.920Z,780.10
2023-04-29T00:20:32.945Z,806.50
2023-04-29T00:21:32.915Z,782.20
2023-04-29T00:22:32.947Z,785.30
2023-04-29T00:23:32.890Z,782.50
2023-04-29T00:24:32.894Z,796.20
2023-04-29T00:25:32.891Z,788.40
2023-04-29T00:26:32.860Z,792.30
2023-04-29T00:27:32.879Z,783.20
2023-04-29T00:28:32.887Z,787.50
2023-04-29T00:29:32.822Z,777.00
2023-04-29T00:30:32.816Z,787.60
2023-04-29T00:31:33.150Z,787.70
2023-04-29T00:32:32.898Z,799.70
2023-04-29T00:33:32.760Z,783.50
2023-04-29T00:34:32.792Z,775.60
2023-04-29T00:35:32.759Z,786.00
2023-04-29T00:36:32.748Z,782.60
2023-04-29T00:37:32.765Z,777.10
2023-04-29T00:38:32.729Z,782.20
2023-04-29T00:39:32.726Z,793.60
2023-04-29T00:40:32.700Z,788.90
2023-04-29T00:41:32.696Z,779.60
2023-04-29T00:42:32.728Z,783.60
2023-04-29T00:43:32.683Z,819.00
2023-04-29T00:44:32.668Z,797.40
2023-04-29T00:45:32.642Z,816.90
2023-04-29T00:46:32.648Z,818.50
2023-04-29T00:47:32.674Z,809.00
2023-04-29T00:48:32.637Z,807.60
2023-04-29T00:49:32.594Z,805.20
2023-04-29T00:50:32.615Z,800.80
2023-04-29T00:51:32.575Z,780.90
2023-04-29T00:52:32.610Z,788.40
2023-04-29T00:53:32.597Z,801.10
2023-04-29T00:54:32.548Z,786.70
2023-04-29T00:55:32.536Z,795.20
2023-04-29T00:56:32.505Z,783.30
2023-04-29T00:57:32.550Z,793.60
2023-04-29T00:58:32.492Z,795.80
2023-04-29T00:59:32.512Z,778.20
2023-04-29T01:00:32.488Z,789.30
2023-04-29T01:01:32.537Z,799.70
2023-04-29T01:02:32.561Z,779.40
2023-04-29T01:03:32.690Z,784.20
2023-04-29T01:04:32.450Z,803.00
2023-04-29T01:05:32.404Z,817.60
2023-04-29T01:06:32.414Z,802.40
2023-04-29T01:07:32.400Z,786.00
2023-04-29T01:08:32.435Z,782.90
2023-04-29T01:09:32.389Z,799.60
2023-04-29T01:10:32.367Z,815.90
2023-04-29T01:11:32.327Z,799.10
2023-04-29T01:12:32.351Z,811.50
2023-04-29T01:13:32.348Z,803.40
2023-04-29T01:14:32.303Z,775.60
2023-04-29T01:15:32.295Z,798.50
2023-04-29T01:16:32.377Z,791.40
2023-04-29T01:17:32.309Z,789.60
2023-04-29T01:18:32.294Z,793.00
2023-04-29T01:19:32.264Z,792.80
2023-04-29T01:20:32.264Z,777.20
2023-04-29T01:21:32.285Z,780.70
2023-04-29T01:22:32.219Z,796.00
2023-04-29T01:23:32.249Z,780.00
2023-04-29T01:24:32.209Z,783.00
2023-04-29T01:25:32.176Z,786.70
2023-04-29T01:26:32.172Z,781.80
2023-04-29T01:27:32.192Z,796.10
2023-04-29T01:28:32.180Z,776.50
2023-04-29T01:29:32.143Z,787.50
2023-04-29T01:30:32.152Z,771.50
2023-04-29T01:31:32.147Z,787.40
2023-04-29T01:32:34.470Z,776.00
2023-04-29T01:33:32.135Z,770.10
2023-04-29T01:34:32.105Z,791.60
2023-04-29T01:35:32.066Z,780.50
2023-04-29T01:36:32.044Z,775.50
2023-04-29T01:37:32.064Z,780.20
2023-04-29T01:38:32.088Z,784.00
2023-04-29T01:39:32.030Z,793.30
2023-04-29T01:40:32.051Z,777.70
2023-04-29T01:41:32.035Z,780.50
2023-04-29T01:42:32.007Z,789.10
2023-04-29T01:43:32.002Z,781.70
2023-04-29T01:44:31.970Z,799.50
2023-04-29T01:45:31.963Z,820.90
2023-04-29T01:46:31.999Z,805.70
2023-04-29T01:47:32.014Z,805.80
2023-04-29T01:48:31.963Z,794.00
2023-04-29T01:49:31.937Z,797.60
2023-04-29T01:50:31.916Z,798.50
2023-04-29T01:51:31.893Z,794.20
2023-04-29T01:52:31.864Z,824.90
2023-04-29T01:53:31.902Z,807.80
2023-04-29T01:54:31.869Z,819.40
2023-04-29T01:55:31.877Z,815.30
2023-04-29T01:56:31.830Z,804.20
2023-04-29T01:57:31.821Z,812.10
2023-04-29T01:58:31.858Z,811.80
2023-04-29T01:59:31.917Z,809.70
2023-04-29T02:00:31.813Z,815.30
2023-04-29T02:01:31.792Z,830.40
2023-04-29T02:02:31.879Z,825.00
2023-04-29T02:03:31.954Z,816.80
2023-04-29T02:04:31.777Z,820.60
2023-04-29T02:05:31.742Z,824.00
2023-04-29T02:06:31.713Z,829.70
2023-04-29T02:07:31.696Z,826.20
2023-04-29T02:08:31.746Z,828.70
2023-04-29T02:09:31.696Z,827.00
2023-04-29T02:10:31.684Z,826.00
2023-04-29T02:11:31.654Z,823.70
2023-04-29T02:12:31.648Z,840.80
2023-04-29T02:13:31.681Z,828.40
2023-04-29T02:14:31.667Z,836.80
2023-04-29T02:15:31.627Z,829.90
2023-04-29T02:16:31.658Z,822.40
2023-04-29T02:17:31.608Z,835.90
2023-04-29T02:18:31.637Z,821.70
2023-04-29T02:19:31.578Z,824.30
2023-04-29T02:20:31.564Z,823.70
2023-04-29T02:21:31.562Z,822.10
2023-04-29T02:22:31.553Z,837.50
2023-04-29T02:23:31.583Z,827.40
2023-04-29T02:24:31.541Z,836.20
2023-04-29T02:25:31.515Z,838.90
2023-04-29T02:26:31.555Z,837.60
2023-04-29T02:27:31.473Z,823.20
2023-04-29T02:28:31.505Z,824.40
2023-04-29T02:29:31.458Z,823.10
2023-04-29T02:30:31.473Z,822.50
2023-04-29T02:31:31.580Z,812.70
2023-04-29T02:32:31.476Z,827.30
2023-04-29T02:33:31.434Z,822.30
2023-04-29T02:34:31.406Z,814.00
2023-04-29T02:35:31.398Z,811.50
2023-04-29T02:36:31.385Z,816.30
2023-04-29T02:37:31.378Z,816.20
2023-04-29T02:38:31.415Z,814.40
2023-04-29T02:39:31.360Z,825.60
2023-04-29T02:40:31.340Z,822.90
2023-04-29T02:41:31.325Z,821.00
2023-04-29T02:42:31.301Z,843.10
2023-04-29T02:43:31.393Z,828.60
2023-04-29T02:44:31.315Z,823.00
2023-04-29T02:45:31.296Z,827.50
2023-04-29T02:46:31.288Z,831.30
2023-04-29T02:47:31.322Z,834.60
2023-04-29T02:48:31.292Z,835.10
2023-04-29T02:49:31.235Z,838.40
2023-04-29T02:50:31.232Z,833.80
2023-04-29T02:51:31.243Z,842.50
2023-04-29T02:52:31.223Z,840.20
2023-04-29T02:53:31.250Z,836.30
2023-04-29T02:54:31.196Z,838.90
2023-04-29T02:55:31.163Z,836.60
2023-04-29T02:56:31.182Z,822.60
2023-04-29T02:57:31.149Z,835.70
2023-04-29T02:58:31.165Z,837.40
2023-04-29T02:59:31.112Z,839.50
2023-04-29T03:00:31.134Z,840.60
2023-04-29T03:01:31.103Z,832.10
2023-04-29T03:02:31.172Z,842.90
2023-04-29T03:03:31.244Z,830.70
2023-04-29T03:04:31.158Z,844.30
2023-04-29T03:05:31.073Z,823.90
2023-04-29T03:06:31.053Z,785.40
2023-04-29T03:07:31.070Z,783.80
2023-04-29T03:08:31.049Z,754.20
2023-04-29T03:09:31.020Z,771.20
2023-04-29T03:10:30.990Z,814.00
2023-04-29T03:11:30.985Z,798.70
2023-04-29T03:12:30.992Z,801.90
2023-04-29T03:13:30.982Z,796.60
2023-04-29T03:14:30.982Z,832.60
2023-04-29T03:15:30.940Z,857.80
2023-04-29T03:16:31.005Z,829.90
2023-04-29T03:17:30.990Z,832.10
2023-04-29T03:18:30.901Z,828.50
2023-04-29T03:19:30.932Z,825.00
2023-04-29T03:20:30.882Z,819.90
2023-04-29T03:21:30.894Z,810.30
2023-04-29T03:22:30.859Z,803.50
2023-04-29T03:23:30.847Z,796.90
2023-04-29T03:24:30.872Z,180.50
2023-04-29T03:25:30.826Z,266.70
2023-04-29T03:26:30.836Z,805.40
2023-04-29T03:27:30.803Z,789.40
2023-04-29T03:28:30.796Z,797.00
2023-04-29T03:29:30.817Z,799.40
2023-04-29T03:30:30.779Z,802.20
2023-04-29T03:31:30.870Z,808.60
2023-04-29T03:32:30.747Z,808.70
2023-04-29T03:33:30.733Z,808.50
2023-04-29T03:34:30.750Z,807.20
2023-04-29T03:35:30.730Z,797.90
2023-04-29T03:36:30.690Z,802.20
2023-04-29T03:37:30.703Z,826.60
2023-04-29T03:38:30.681Z,810.10
2023-04-29T03:39:30.700Z,830.40
2023-04-29T03:40:30.644Z,826.30
2023-04-29T03:41:30.631Z,829.00
2023-04-29T03:42:30.641Z,821.30
2023-04-29T03:43:30.613Z,833.00
2023-04-29T03:44:30.643Z,845.20
2023-04-29T03:45:30.603Z,842.20
2023-04-29T03:46:30.585Z,848.10
2023-04-29T03:47:30.611Z,840.20
2023-04-29T03:48:30.558Z,839.60
2023-04-29T03:49:30.557Z,372.50
2023-04-29T03:50:30.559Z,527.30
2023-04-29T03:51:30.533Z,213.00
2023-04-29T03:52:30.507Z,825.40
2023-04-29T03:53:30.490Z,811.90
2023-04-29T03:54:30.538Z,832.60
2023-04-29T03:55:30.487Z,822.00
2023-04-29T03:56:30.481Z,810.90
2023-04-29T03:57:30.476Z,803.40
2023-04-29T03:58:30.462Z,800.50
2023-04-29T03:59:30.477Z,793.30
2023-04-29T04:00:30.479Z,793.30
2023-04-29T04:01:30.424Z,790.30
2023-04-29T04:02:30.586Z,801.60
2023-04-29T04:03:30.466Z,787.00
2023-04-29T04:04:30.527Z,781.60
2023-04-29T04:05:30.398Z,772.60
2023-04-29T04:06:30.350Z,770.60
2023-04-29T04:07:30.331Z,768.30
2023-04-29T04:08:30.324Z,765.70
2023-04-29T04:09:30.305Z,778.70
2023-04-29T04:10:30.331Z,775.50
2023-04-29T04:11:30.305Z,765.40
2023-04-29T04:12:30.303Z,772.70
2023-04-29T04:13:30.266Z,751.50
2023-04-29T04:14:30.270Z,781.50
2023-04-29T04:15:30.294Z,769.70
2023-04-29T04:16:30.311Z,775.80
2023-04-29T04:17:30.222Z,763.50
2023-04-29T04:18:30.223Z,772.10
2023-04-29T04:19:30.204Z,754.50
2023-04-29T04:20:30.238Z,760.70
2023-04-29T04:21:30.203Z,760.30
2023-04-29T04:22:30.269Z,760.80
2023-04-29T04:23:30.165Z,762.50
2023-04-29T04:24:30.244Z,746.80
2023-04-29T04:25:30.184Z,741.90
2023-04-29T04:26:30.160Z,758.70
2023-04-29T04:27:30.114Z,750.40
2023-04-29T04:28:30.106Z,757.50
2023-04-29T04:29:30.087Z,753.30
2023-04-29T04:30:30.112Z,756.50
2023-04-29T04:31:30.159Z,758.50
2023-04-29T04:32:30.058Z,755.40
2023-04-29T04:33:30.045Z,768.80
2023-04-29T04:34:30.033Z,760.80
2023-04-29T04:35:30.090Z,214.10
2023-04-29T04:36:30.014Z,755.40
2023-04-29T04:37:30.013Z,754.70
2023-04-29T04:38:29.984Z,750.80
2023-04-29T04:39:29.982Z,754.90
2023-04-29T04:40:30.009Z,754.10
2023-04-29T04:41:29.966Z,762.10
2023-04-29T04:42:29.957Z,741.50
2023-04-29T04:43:29.932Z,751.10
2023-04-29T04:44:29.938Z,487.30
2023-04-29T04:45:30.036Z,761.60
2023-04-29T04:46:29.957Z,738.80
2023-04-29T04:47:29.922Z,748.40
2023-04-29T04:48:29.878Z,756.30
2023-04-29T04:49:29.865Z,765.30
2023-04-29T04:50:29.880Z,787.70
2023-04-29T04:51:29.886Z,758.40
2023-04-29T04:52:29.838Z,759.30
2023-04-29T04:53:29.829Z,755.50
2023-04-29T04:54:29.813Z,768.80
2023-04-29T04:55:29.800Z,762.70
2023-04-29T04:56:29.804Z,763.20
2023-04-29T04:57:29.785Z,520.90
2023-04-29T04:58:29.750Z,788.40
2023-04-29T04:59:29.760Z,465.30
2023-04-29T05:00:29.742Z,792.60
2023-04-29T05:01:29.802Z,803.90
2023-04-29T05:02:29.852Z,772.90
2023-04-29T05:03:29.827Z,149.80
2023-04-29T05:04:29.872Z,244.70
2023-04-29T05:05:29.678Z,392.90
2023-04-29T05:06:29.713Z,845.70
2023-04-29T05:07:29.664Z,838.50
2023-04-29T05:08:29.646Z,844.70
2023-04-29T05:09:29.647Z,351.10
2023-04-29T05:10:29.605Z,833.00
2023-04-29T05:11:29.661Z,469.60
2023-04-29T05:12:29.604Z,204.10
2023-04-29T05:13:29.588Z,797.50
2023-04-29T05:14:29.582Z,308.80
2023-04-29T05:15:29.586Z,759.60
2023-04-29T05:16:29.630Z,484.80
2023-04-29T05:17:29.594Z,551.90
2023-04-29T05:18:29.512Z,739.70
2023-04-29T05:19:29.525Z,440.50
2023-04-29T05:20:29.506Z,677.70
2023-04-29T05:21:29.555Z,102.20
2023-04-29T05:22:29.479Z,680.40
2023-04-29T05:23:29.488Z,100.20
2023-04-29T05:24:29.474Z,687.00
2023-04-29T05:25:29.490Z,547.90
2023-04-29T05:26:29.488Z,738.80
2023-04-29T05:27:29.445Z,709.60
2023-04-29T05:28:29.419Z,724.30
2023-04-29T05:29:29.419Z,738.60
2023-04-29T05:30:29.405Z,730.90
2023-04-29T05:31:29.482Z,230.90
2023-04-29T05:32:29.389Z,755.90
2023-04-29T05:33:29.368Z,338.20
2023-04-29T05:34:29.357Z,750.90
2023-04-29T05:35:29.334Z,151.60
2023-04-29T05:36:29.365Z,132.50
2023-04-29T05:37:29.312Z,777.60
2023-04-29T05:38:29.335Z,485.00
2023-04-29T05:39:29.294Z,567.60
2023-04-29T05:40:29.280Z,614.00
2023-04-29T05:41:29.313Z,297.70
2023-04-29T05:42:29.263Z,465.40
2023-04-29T05:43:29.260Z,656.40
2023-04-29T05:44:29.238Z,461.60
2023-04-29T05:45:29.244Z,594.80
2023-04-29T05:46:29.310Z,733.30
2023-04-29T05:47:29.226Z,683.00
2023-04-29T05:48:29.195Z,314.00
2023-04-29T05:49:29.177Z,666.40
2023-04-29T05:50:29.173Z,144.00
2023-04-29T05:51:29.204Z,685.50
2023-04-29T05:52:29.152Z,492.60
2023-04-29T05:53:29.144Z,699.00
2023-04-29T05:54:29.138Z,124.10
2023-04-29T05:55:29.124Z,742.50
2023-04-29T05:56:29.144Z,147.30
2023-04-29T05:57:29.101Z,736.50
2023-04-29T05:58:29.083Z,164.30
2023-04-29T05:59:29.086Z,494.30
2023-04-29T06:00:29.061Z,753.70
2023-04-29T06:01:29.099Z,693.00
2023-04-29T06:02:29.132Z,408.10
2023-04-29T06:03:29.156Z,709.50
2023-04-29T06:04:29.326Z,176.50
2023-04-29T06:05:29.507Z,675.10
2023-04-29T06:06:29.107Z,188.50
2023-04-29T06:07:28.984Z,384.30
2023-04-29T06:08:28.993Z,688.70
2023-04-29T06:09:28.956Z,215.20
2023-04-29T06:10:28.970Z,470.60
2023-04-29T06:11:28.958Z,698.70
2023-04-29T06:12:28.936Z,655.70
2023-04-29T06:13:28.914Z,132.80
2023-04-29T06:14:28.894Z,177.90
2023-04-29T06:15:28.896Z,171.60
2023-04-29T06:16:28.965Z,371.80
2023-04-29T06:17:28.884Z,698.30
2023-04-29T06:18:28.865Z,151.70
2023-04-29T06:19:28.866Z,176.80
2023-04-29T06:20:28.826Z,702.10
2023-04-29T06:21:28.814Z,642.60
2023-04-29T06:22:28.842Z,126.40
2023-04-29T06:23:28.796Z,260.50
2023-04-29T06:24:28.789Z,713.10
2023-04-29T06:25:28.784Z,511.10
2023-04-29T06:26:28.755Z,113.60
2023-04-29T06:27:28.786Z,149.40
2023-04-29T06:28:28.741Z,727.90
2023-04-29T06:29:28.743Z,696.20
2023-04-29T06:30:28.726Z,679.10
2023-04-29T06:31:28.738Z,225.20
2023-04-29T06:32:28.760Z,738.20
2023-04-29T06:33:28.691Z,718.70
2023-04-29T06:34:28.675Z,79.90
2023-04-29T06:35:28.655Z,323.90
2023-04-29T06:36:28.654Z,750.50
2023-04-29T06:37:28.677Z,731.00
2023-04-29T06:38:28.619Z,487.20
2023-04-29T06:39:28.621Z,595.20
2023-04-29T06:40:28.598Z,140.10
2023-04-29T06:41:28.653Z,757.90
2023-04-29T06:42:28.596Z,704.10
2023-04-29T06:43:28.600Z,688.90
2023-04-29T06:44:28.550Z,107.20
2023-04-29T06:45:28.551Z,613.40
2023-04-29T06:46:28.666Z,713.60
2023-04-29T06:47:28.564Z,98.00
2023-04-29T06:48:28.505Z,543.70
2023-04-29T06:49:28.517Z,711.40
2023-04-29T06:50:28.494Z,315.00
2023-04-29T06:51:28.478Z,140.20
2023-04-29T06:52:28.527Z,705.80
2023-04-29T06:53:28.470Z,482.30
2023-04-29T06:54:28.462Z,533.70
2023-04-29T06:55:28.458Z,736.60
2023-04-29T06:56:28.499Z,696.00
2023-04-29T06:57:28.473Z,143.80
2023-04-29T06:58:28.556Z,257.90
2023-04-29T06:59:28.486Z,734.60
2023-04-29T07:00:28.404Z,732.40
2023-04-29T07:01:28.404Z,627.70
2023-04-29T07:02:28.556Z,143.00
2023-04-29T07:03:28.398Z,568.10
2023-04-29T07:04:28.392Z,740.90
2023-04-29T07:05:28.347Z,531.90
2023-04-29T07:06:28.328Z,663.60
2023-04-29T07:07:28.369Z,98.20
2023-04-29T07:08:28.284Z,176.70
2023-04-29T07:09:28.301Z,713.70
2023-04-29T07:10:28.271Z,213.20
2023-04-29T07:11:28.271Z,246.40
2023-04-29T07:12:28.306Z,287.70
2023-04-29T07:13:28.229Z,448.50
2023-04-29T07:14:28.218Z,667.50
2023-04-29T07:15:28.235Z,479.80
2023-04-29T07:16:28.265Z,104.90
2023-04-29T07:17:28.314Z,160.80
2023-04-29T07:18:28.190Z,176.50
2023-04-29T07:19:28.167Z,656.80
2023-04-29T07:20:28.150Z,156.70
2023-04-29T07:21:28.166Z,150.50
2023-04-29T07:22:28.191Z,135.80
2023-04-29T07:23:28.126Z,628.50
2023-04-29T07:24:28.140Z,480.60
2023-04-29T07:25:28.112Z,268.50
2023-04-29T07:26:28.110Z,133.90
2023-04-29T07:27:28.114Z,119.50
2023-04-29T07:28:28.083Z,454.50
2023-04-29T07:29:28.076Z,434.20
2023-04-29T07:30:28.065Z,89.30
2023-04-29T07:31:28.165Z,480.10
2023-04-29T07:32:28.096Z,386.40
2023-04-29T07:33:28.037Z,100.90
2023-04-29T07:34:28.036Z,607.90
2023-04-29T07:35:28.015Z,88.00
2023-04-29T07:36:27.990Z,172.00
2023-04-29T07:37:28.012Z,543.70
2023-04-29T07:38:27.951Z,105.20
2023-04-29T07:39:27.953Z,603.10
2023-04-29T07:40:27.952Z,66.00
2023-04-29T07:41:27.935Z,99.40
2023-04-29T07:42:27.950Z,585.90
2023-04-29T07:43:27.932Z,70.90
2023-04-29T07:44:27.906Z,600.20
2023-04-29T07:45:27.917Z,304.40
2023-04-29T07:46:27.915Z,233.80
2023-04-29T07:47:27.929Z,111.30
2023-04-29T07:48:27.853Z,617.70
2023-04-29T07:49:27.845Z,341.60
2023-04-29T07:50:27.822Z,76.60
2023-04-29T07:51:27.811Z,100.90
2023-04-29T07:52:27.864Z,579.50
2023-04-29T07:53:27.811Z,344.80
2023-04-29T07:54:27.782Z,69.60
2023-04-29T07:55:27.768Z,374.80
2023-04-29T07:56:27.759Z,463.70
2023-04-29T07:57:27.799Z,94.20
2023-04-29T07:58:27.753Z,135.00
2023-04-29T07:59:27.734Z,644.40
2023-04-29T08:00:27.747Z,484.00
2023-04-29T08:01:27.688Z,448.90
2023-04-29T08:02:27.768Z,114.30
2023-04-29T08:03:27.877Z,139.80
2023-04-29T08:04:28.066Z,656.60
2023-04-29T08:05:28.201Z,523.60
2023-04-29T08:06:27.659Z,135.20
2023-04-29T08:07:27.624Z,605.80
2023-04-29T08:08:27.646Z,640.70
2023-04-29T08:09:27.597Z,185.00
2023-04-29T08:10:27.597Z,132.60
2023-04-29T08:11:27.587Z,713.20
2023-04-29T08:12:27.583Z,658.20
2023-04-29T08:13:27.617Z,124.20
2023-04-29T08:14:27.567Z,574.60
2023-04-29T08:15:27.535Z,721.30
2023-04-29T08:16:27.566Z,250.30
2023-04-29T08:17:27.523Z,181.80
2023-04-29T08:18:27.553Z,632.90
2023-04-29T08:19:27.511Z,328.10
2023-04-29T08:20:27.496Z,434.20
2023-04-29T08:21:27.503Z,79.20
2023-04-29T08:22:27.498Z,133.10
2023-04-29T08:23:27.509Z,607.20
2023-04-29T08:24:27.474Z,91.00
2023-04-29T08:25:27.438Z,471.00
2023-04-29T08:26:27.439Z,118.70
2023-04-29T08:27:27.432Z,85.60
2023-04-29T08:28:27.462Z,201.10
2023-04-29T08:29:27.424Z,404.60
2023-04-29T08:30:27.395Z,367.30
2023-04-29T08:31:27.529Z,332.10
2023-04-29T08:32:27.424Z,341.40
2023-04-29T08:33:27.378Z,342.40
2023-04-29T08:34:27.313Z,361.80
2023-04-29T08:35:27.313Z,307.10
2023-04-29T08:36:27.306Z,164.20
2023-04-29T08:37:27.299Z,226.20
2023-04-29T08:38:27.329Z,211.90
2023-04-29T08:39:27.407Z,202.20
2023-04-29T08:40:27.275Z,225.30
2023-04-29T08:41:27.259Z,273.20
2023-04-29T08:42:27.238Z,262.70
2023-04-29T08:43:27.276Z,308.80
2023-04-29T08:44:27.199Z,373.70
2023-04-29T08:45:27.260Z,351.40
2023-04-29T08:46:27.201Z,474.90
2023-04-29T08:47:27.209Z,499.70
2023-04-29T08:48:27.276Z,497.80
2023-04-29T08:49:27.153Z,521.80
2023-04-29T08:50:27.170Z,183.60
2023-04-29T08:51:27.148Z,130.90
2023-04-29T08:52:27.119Z,655.30
2023-04-29T08:53:27.169Z,653.50
2023-04-29T08:54:27.136Z,507.90
2023-04-29T08:55:27.096Z,153.10
2023-04-29T08:56:28.166Z,709.20
2023-04-29T08:57:27.070Z,673.30
2023-04-29T08:58:27.129Z,631.00
2023-04-29T08:59:27.055Z,151.90
2023-04-29T09:00:27.061Z,646.20
2023-04-29T09:01:27.073Z,680.40
2023-04-29T09:02:27.054Z,413.80
2023-04-29T09:03:27.157Z,640.10
2023-04-29T09:04:27.036Z,161.80
2023-04-29T09:05:26.982Z,631.00
2023-04-29T09:06:26.953Z,208.00
2023-04-29T09:07:26.955Z,147.70
2023-04-29T09:08:27.016Z,637.40
2023-04-29T09:09:26.927Z,489.20
2023-04-29T09:10:26.953Z,135.20
2023-04-29T09:11:26.918Z,522.00
2023-04-29T09:12:26.907Z,118.80
2023-04-29T09:13:26.911Z,577.30
2023-04-29T09:14:26.937Z,449.70
2023-04-29T09:15:26.871Z,448.20
2023-04-29T09:16:26.892Z,376.80
2023-04-29T09:17:26.879Z,338.40
2023-04-29T09:18:26.863Z,65.50
2023-04-29T09:19:26.866Z,83.60
2023-04-29T09:20:26.816Z,112.40
2023-04-29T09:21:26.807Z,590.50
2023-04-29T09:22:26.803Z,414.90
2023-04-29T09:23:26.774Z,326.10
2023-04-29T09:24:26.825Z,84.20
2023-04-29T09:25:26.759Z,95.20
2023-04-29T09:26:26.767Z,513.60
2023-04-29T09:27:26.746Z,454.20
2023-04-29T09:28:26.778Z,348.40
2023-04-29T09:29:26.736Z,83.10
2023-04-29T09:30:26.722Z,92.50
2023-04-29T09:31:26.732Z,343.50
2023-04-29T09:32:26.680Z,78.90
2023-04-29T09:33:26.700Z,98.00
2023-04-29T09:34:26.652Z,560.70
2023-04-29T09:35:26.671Z,512.30
2023-04-29T09:36:26.661Z,90.40
2023-04-29T09:37:26.681Z,408.80
2023-04-29T09:38:26.644Z,175.50
2023-04-29T09:39:26.648Z,211.70
2023-04-29T09:40:26.599Z,298.90
2023-04-29T09:41:26.590Z,104.70
2023-04-29T09:42:26.583Z,118.20
2023-04-29T09:43:26.552Z,131.60
2023-04-29T09:44:26.608Z,225.40
2023-04-29T09:45:26.541Z,173.00
2023-04-29T09:46:26.597Z,153.80
2023-04-29T09:47:26.541Z,126.40
2023-04-29T09:48:26.540Z,152.20
2023-04-29T09:49:26.526Z,136.40
2023-04-29T09:50:26.491Z,130.40
2023-04-29T09:51:26.482Z,106.80
2023-04-29T09:52:26.471Z,309.30
2023-04-29T09:53:26.442Z,101.90
2023-04-29T09:54:26.504Z,85.30
2023-04-29T09:55:26.420Z,76.90
2023-04-29T09:56:26.420Z,81.70
2023-04-29T09:57:26.417Z,110.90
2023-04-29T09:58:26.390Z,89.90
2023-04-29T09:59:26.416Z,136.10
2023-04-29T10:00:26.364Z,140.10
2023-04-29T10:01:26.407Z,140.30
2023-04-29T10:02:26.384Z,180.20
2023-04-29T10:03:26.395Z,395.20
2023-04-29T10:04:26.424Z,253.90
2023-04-29T10:05:26.323Z,151.20
2023-04-29T10:06:26.330Z,134.10
2023-04-29T10:07:26.301Z,137.00
2023-04-29T10:08:26.286Z,119.80
2023-04-29T10:09:26.324Z,81.20
2023-04-29T10:10:26.642Z,196.40
2023-04-29T10:11:26.242Z,79.10
2023-04-29T10:12:26.260Z,109.90
2023-04-29T10:13:26.216Z,219.00
2023-04-29T10:14:26.244Z,95.10
2023-04-29T10:15:26.209Z,114.90
2023-04-29T10:16:26.217Z,153.20
2023-04-29T10:17:26.197Z,526.40
2023-04-29T10:18:26.193Z,135.00
2023-04-29T10:19:26.205Z,133.70
2023-04-29T10:20:26.184Z,99.50
2023-04-29T10:21:26.144Z,134.70
2023-04-29T10:22:26.133Z,118.00
2023-04-29T10:23:26.097Z,267.80
2023-04-29T10:24:26.137Z,184.20
2023-04-29T10:25:26.092Z,256.70
2023-04-29T10:26:26.112Z,252.90
2023-04-29T10:27:26.056Z,256.10
2023-04-29T10:28:26.055Z,183.10
2023-04-29T10:29:26.052Z,318.40
2023-04-29T10:30:26.026Z,440.70
2023-04-29T10:31:26.057Z,52.90
2023-04-29T10:32:26.752Z,60.10
2023-04-29T10:33:26.049Z,63.20
2023-04-29T10:34:26.004Z,68.50
2023-04-29T10:35:26.142Z,72.90
2023-04-29T10:36:25.952Z,352.70
2023-04-29T10:37:25.945Z,237.30
2023-04-29T10:38:25.946Z,124.30
2023-04-29T10:39:25.923Z,139.20
2023-04-29T10:40:25.915Z,144.20
2023-04-29T10:41:25.928Z,163.50
2023-04-29T10:42:25.864Z,99.60
2023-04-29T10:43:25.889Z,96.90
2023-04-29T10:44:25.933Z,106.40
2023-04-29T10:45:25.855Z,90.50
2023-04-29T10:46:25.888Z,147.30
2023-04-29T10:47:25.876Z,165.90
2023-04-29T10:48:25.820Z,397.40
2023-04-29T10:49:25.844Z,69.10
2023-04-29T10:50:25.848Z,65.70
2023-04-29T10:51:25.774Z,154.40
2023-04-29T10:52:25.753Z,76.90
2023-04-29T10:53:25.769Z,145.50
2023-04-29T10:54:25.795Z,126.80
2023-04-29T10:55:25.794Z,192.50
2023-04-29T10:56:25.723Z,413.50
2023-04-29T10:57:25.724Z,295.50
2023-04-29T10:58:25.702Z,285.90
2023-04-29T10:59:25.706Z,398.60
2023-04-29T11:00:25.685Z,551.90
2023-04-29T11:01:25.766Z,557.20
2023-04-29T11:02:25.735Z,578.70
2023-04-29T11:03:25.729Z,597.60
2023-04-29T11:04:25.712Z,587.10
2023-04-29T11:05:27.740Z,570.70
2023-04-29T11:06:25.633Z,592.40
2023-04-29T11:07:25.597Z,608.00
2023-04-29T11:08:25.593Z,629.40
2023-04-29T11:09:25.648Z,612.00
2023-04-29T11:10:25.582Z,684.30
2023-04-29T11:11:27.798Z,691.10
2023-04-29T11:12:25.549Z,628.20
2023-04-29T11:13:25.535Z,744.90
2023-04-29T11:14:25.615Z,360.00
2023-04-29T11:15:25.552Z,213.10
2023-04-29T11:16:25.584Z,699.90
2023-04-29T11:17:27.153Z,703.10
2023-04-29T11:18:25.505Z,523.80
2023-04-29T11:19:25.515Z,261.90
2023-04-29T11:20:25.479Z,200.80
2023-04-29T11:21:25.452Z,313.40
2023-04-29T11:22:25.467Z,604.70
2023-04-29T11:23:26.745Z,197.90
2023-04-29T11:24:25.466Z,168.50
2023-04-29T11:25:25.422Z,137.80
2023-04-29T11:26:25.388Z,665.30
2023-04-29T11:27:25.410Z,136.50
2023-04-29T11:28:25.406Z,141.70
2023-04-29T11:29:25.376Z,214.80
2023-04-29T11:30:25.357Z,233.70
2023-04-29T11:31:27.523Z,268.20
2023-04-29T11:32:25.442Z,256.20
2023-04-29T11:33:25.323Z,273.30
2023-04-29T11:34:25.358Z,242.50
2023-04-29T11:35:25.291Z,226.40
2023-04-29T11:36:25.298Z,237.40
2023-04-29T11:37:25.269Z,273.60
2023-04-29T11:38:25.257Z,310.50
2023-04-29T11:39:25.278Z,353.80
2023-04-29T11:40:25.224Z,605.90
2023-04-29T11:41:25.218Z,787.80
2023-04-29T11:42:25.310Z,636.00
2023-04-29T11:43:25.237Z,660.70
2023-04-29T11:44:25.222Z,578.10
2023-04-29T11:45:25.166Z,690.70
2023-04-29T11:46:25.203Z,659.50
2023-04-29T11:47:25.197Z,635.10
2023-04-29T11:48:25.200Z,685.40
2023-04-29T11:49:25.154Z,689.80
2023-04-29T11:50:25.145Z,637.20
2023-04-29T11:51:25.117Z,796.80
2023-04-29T11:52:25.105Z,745.40
2023-04-29T11:53:25.116Z,682.90
2023-04-29T11:54:25.059Z,704.50
2023-04-29T11:55:25.021Z,739.20
2023-04-29T11:56:25.059Z,346.40
2023-04-29T11:57:25.032Z,547.10
2023-04-29T11:58:25.027Z,723.00
2023-04-29T11:59:25.048Z,726.60
2023-04-29T12:00:24.987Z,584.10
2023-04-29T12:01:25.007Z,713.60
2023-04-29T12:02:25.051Z,692.30
2023-04-29T12:03:25.151Z,743.00
2023-04-29T12:04:25.177Z,776.10
2023-04-29T12:05:25.095Z,614.50
2023-04-29T12:06:24.963Z,742.30
2023-04-29T12:07:24.912Z,818.30
2023-04-29T12:08:24.922Z,458.90
2023-04-29T12:09:24.951Z,717.50
2023-04-29T12:10:24.915Z,762.30
2023-04-29T12:11:24.894Z,699.40
2023-04-29T12:12:24.857Z,374.70
2023-04-29T12:13:24.878Z,787.80
2023-04-29T12:14:24.895Z,791.80
2023-04-29T12:15:24.850Z,831.60
2023-04-29T12:16:24.877Z,348.50
2023-04-29T12:17:24.881Z,479.50
2023-04-29T12:18:24.824Z,899.40
2023-04-29T12:19:24.845Z,830.80
2023-04-29T12:20:24.782Z,868.60
2023-04-29T12:21:24.751Z,827.30
2023-04-29T12:22:24.764Z,826.90
2023-04-29T12:23:24.742Z,515.80
2023-04-29T12:24:24.738Z,557.70
2023-04-29T12:25:24.719Z,828.40
2023-04-29T12:26:24.693Z,673.00
2023-04-29T12:27:24.705Z,634.80
2023-04-29T12:28:24.679Z,792.20
2023-04-29T12:29:24.724Z,707.70